Time;durP1;ratioP1;P1;durP2;ratioP2;P2;SDS_P1;SDS_P2;PMS_P1;PMS_P2;Temp;Humidity;BMP_temperature;BMP_pressure;BME280_temperature;BME280_humidity;BME280_pressure;Samples;Min_cycle;Max_cycle;Signal;HPM_P1;HPM_P2
2023/09/18 00:00:00;;;;;;;42.55;20.90;;;17.10;99.90;;;;;;5115991;27;20047;-74
2023/09/18 00:02:27;;;;;;;29.20;21.60;;;;;;;;;;5116101;27;20043;-74
2023/09/18 00:04:54;;;;;;;42.60;20.30;;;;;;;;;;5115932;27;20444;-74
2023/09/18 00:07:19;;;;;;;41.63;19.90;;;18.00;99.90;;;;;;5099100;27;20383;-74
2023/09/18 00:09:45;;;;;;;44.25;20.23;;;;;;;;;;5099210;27;20053;-74
2023/09/18 00:12:11;;;;;;;50.47;20.48;;;;;;;;;;5115817;27;20035;-74
2023/09/18 00:14:37;;;;;;;38.47;20.63;;;;;;;;;;5098989;27;20142;-74
2023/09/18 00:17:03;;;;;;;61.90;21.60;;;18.10;99.90;;;;;;5115726;27;20054;-69
2023/09/18 00:19:31;;;;;;;83.00;21.15;;;16.50;99.90;;;;;;5134119;27;20046;-69
2023/09/18 00:22:00;;;;;;;45.63;21.75;;;;;;;;;;5115631;28;20043;-69
2023/09/18 00:24:26;;;;;;;35.70;22.48;;;16.90;99.90;;;;;;5115870;27;20039;-69
2023/09/18 00:26:53;;;;;;;30.58;21.63;;;;;;;;;;5115527;28;20047;-69
2023/09/18 00:29:20;;;;;;;31.50;23.00;;;;;;;;;;5115895;28;20074;-69
2023/09/18 00:31:45;;;;;;;27.92;22.00;;;16.00;99.90;;;;;;5115787;28;20036;-69
2023/09/18 00:34:11;;;;;;;33.28;23.67;;;15.90;99.90;;;;;;5115393;28;20407;-70
2023/09/18 00:36:37;;;;;;;29.48;23.13;;;17.80;99.90;;;;;;5115270;28;20043;-69
2023/09/18 00:39:03;;;;;;;28.45;22.20;;;18.00;99.90;;;;;;5115548;28;20047;-69
2023/09/18 00:41:29;;;;;;;33.33;24.17;;;18.20;99.90;;;;;;5115958;27;20043;-69
2023/09/18 00:43:55;;;;;;;30.13;22.77;;;;;;;;;;5102918;27;20126;-69
2023/09/18 00:46:22;;;;;;;32.22;24.92;;;16.30;99.90;;;;;;5119652;27;20096;-69
2023/09/18 00:48:49;;;;;;;32.03;23.67;;;16.50;99.90;;;;;;5119774;27;20107;-69
2023/09/18 00:51:15;;;;;;;31.95;24.27;;;17.60;99.90;;;;;;5119580;27;20126;-69
2023/09/18 00:53:48;;;;;;;29.45;23.50;;;17.00;99.90;;;;;;5119411;27;20039;-69
2023/09/18 00:56:14;;;;;;;33.85;23.42;;;18.00;99.90;;;;;;5119669;27;20039;-69
2023/09/18 00:58:40;;;;;;;32.42;22.70;;;16.30;99.90;;;;;;5102615;27;20074;-74
2023/09/18 01:01:06;;;;;;;30.92;22.52;;;17.00;99.90;;;;;;5119190;27;20087;-74
2023/09/18 01:03:32;;;;;;;28.92;22.90;;;;;;;;;;5119579;27;20043;-74
2023/09/18 01:05:59;;;;;;;26.05;20.65;;;17.10;99.90;;;;;;5085353;27;20035;-74
2023/09/18 01:08:25;;;;;;;27.73;21.20;;;18.10;99.90;;;;;;5102232;27;20035;-74
2023/09/18 01:11:08;;;;;;;29.02;23.30;;;18.10;99.90;;;;;;5119118;27;20061;-74
2023/09/18 01:14:02;;;;;;;26.65;20.58;;;18.10;99.90;;;;;;5102406;27;20074;-74
2023/09/18 01:16:36;;;;;;;28.40;20.73;;;17.80;99.90;;;;;;5102131;27;20043;-74
2023/09/18 01:19:03;;;;;;;28.38;21.73;;;17.60;99.90;;;;;;5119044;27;20081;-74
2023/09/18 01:21:29;;;;;;;27.00;20.77;;;;;;;;;;5118940;27;20051;-74
2023/09/18 01:23:55;;;;;;;25.60;20.35;;;;;;;;;;5118965;27;20076;-74
2023/09/18 01:26:21;;;;;;;27.25;20.70;;;;;;;;;;5119033;27;20398;-74
2023/09/18 01:28:47;;;;;;;25.20;20.60;;;;;;;;;;5118914;27;20042;-74
2023/09/18 01:31:13;;;;;;;27.70;21.90;;;;;;;;;;5101778;27;20046;-73
2023/09/18 01:33:40;;;;;;;27.83;22.67;;;;;;;;;;5101845;27;20084;-73
2023/09/18 01:36:08;;;;;;;29.55;22.05;;;17.10;99.90;;;;;;5118663;27;20039;-74
2023/09/18 01:38:35;;;;;;;27.13;21.25;;;17.10;99.90;;;;;;5118585;27;20047;-74
2023/09/18 01:41:01;;;;;;;27.30;21.70;;;;;;;;;;5118769;27;20390;-74
2023/09/18 01:43:28;;;;;;;30.77;23.92;;;;;;;;;;5101552;27;20478;-73
2023/09/18 01:45:55;;;;;;;27.35;21.25;;;17.20;99.90;;;;;;5118795;27;20035;-73
2023/09/18 01:48:21;;;;;;;31.08;21.65;;;;;;;;;;5118541;27;20108;-73
2023/09/18 01:50:47;;;;;;;24.95;20.27;;;17.80;99.90;;;;;;5101850;27;20071;-74
2023/09/18 01:53:13;;;;;;;23.30;18.17;;;17.00;99.90;;;;;;5101079;27;20489;-74
2023/09/18 01:55:38;;;;;;;30.50;22.30;;;16.60;99.90;;;;;;5118317;27;20071;-74
2023/09/18 01:58:04;;;;;;;24.00;19.60;;;;;;;;;;5136809;27;20122;-73
2023/09/18 02:00:30;;;;;;;29.02;21.20;;;17.90;99.90;;;;;;5118255;27;20038;-73
2023/09/18 02:02:56;;;;;;;29.05;22.15;;;18.00;99.90;;;;;;5118354;27;20039;-69
2023/09/18 02:05:22;;;;;;;29.30;20.88;;;15.90;99.90;;;;;;5118454;27;20038;-69
2023/09/18 02:07:48;;;;;;;24.38;20.00;;;;;;;;;;5118516;27;20475;-69
2023/09/18 02:10:14;;;;;;;26.27;20.92;;;;;;;;;;5118535;27;20035;-69
2023/09/18 02:12:39;;;;;;;24.83;19.73;;;17.60;99.90;;;;;;5118458;27;20031;-69
2023/09/18 02:15:06;;;;;;;24.73;19.92;;;17.00;99.90;;;;;;5124428;27;20019;-69
2023/09/18 02:17:32;;;;;;;25.98;20.45;;;16.50;99.90;;;;;;5140496;27;20055;-70
2023/09/18 02:20:00;;;;;;;27.30;20.88;;;17.20;99.90;;;;;;5121224;27;20510;-68
2023/09/18 02:22:26;;;;;;;25.85;19.52;;;17.60;99.90;;;;;;5119869;27;20039;-69
2023/09/18 02:24:52;;;;;;;24.67;19.98;;;17.00;99.90;;;;;;5119072;27;20368;-69
2023/09/18 02:27:18;;;;;;;25.55;19.90;;;16.70;99.90;;;;;;5120742;27;20047;-69
2023/09/18 02:29:44;;;;;;;26.77;20.10;;;;;;;;;;5102631;27;20046;-68
2023/09/18 02:32:10;;;;;;;25.73;19.15;;;;;;;;;;5119631;27;20164;-73
2023/09/18 02:34:36;;;;;;;24.33;18.48;;;17.80;99.90;;;;;;5123625;27;20031;-74
2023/09/18 02:37:02;;;;;;;26.55;19.17;;;;;;;;;;5123367;27;20047;-74
2023/09/18 02:39:28;;;;;;;23.55;18.48;;;17.70;99.90;;;;;;5101846;27;20070;-74
2023/09/18 02:41:54;;;;;;;24.30;20.05;;;17.70;99.90;;;;;;5117554;27;20075;-74
2023/09/18 02:44:19;;;;;;;25.00;19.70;;;16.20;99.90;;;;;;5117662;27;20083;-74
2023/09/18 02:46:45;;;;;;;33.45;20.73;;;;;;;;;;5100630;27;20043;-74
2023/09/18 02:49:12;;;;;;;22.30;18.15;;;;;;;;;;5117674;27;20463;-74
2023/09/18 02:51:38;;;;;;;27.55;19.83;;;;;;;;;;5100653;27;20047;-74
2023/09/18 02:54:04;;;;;;;24.85;19.15;;;;;;;;;;5113701;28;20061;-74
2023/09/18 02:56:30;;;;;;;23.60;18.27;;;;;;;;;;5114047;28;20052;-74
2023/09/18 02:58:56;;;;;;;25.73;18.95;;;;;;;;;;5097058;28;20126;-74
2023/09/18 03:01:22;;;;;;;27.92;19.77;;;;;;;;;;5113991;28;20100;-74
2023/09/18 03:03:48;;;;;;;24.15;18.15;;;17.20;99.90;;;;;;5096590;28;20043;-74
2023/09/18 03:06:14;;;;;;;27.55;19.40;;;17.90;99.90;;;;;;5113057;28;20074;-74
2023/09/18 03:08:39;;;;;;;26.52;19.80;;;17.90;99.90;;;;;;5113925;28;20039;-74
2023/09/18 03:11:13;;;;;;;24.73;20.08;;;15.90;99.90;;;;;;5113512;28;20043;-74
2023/09/18 03:13:45;;;;;;;23.35;19.02;;;17.40;99.90;;;;;;5113644;28;20124;-73
2023/09/18 03:16:12;;;;;;;25.85;18.85;;;;;;;;;;5096396;28;20049;-74
2023/09/18 03:18:38;;;;;;;26.98;20.52;;;;;;;;;;5096529;28;20050;-74
2023/09/18 03:21:04;;;;;;;30.02;20.40;;;17.70;99.90;;;;;;5096696;28;20452;-74
2023/09/18 03:23:29;;;;;;;30.75;20.00;;;15.80;99.90;;;;;;5096636;28;20122;-74
2023/09/18 03:25:55;;;;;;;27.10;20.50;;;15.80;99.90;;;;;;5113347;28;20442;-74
2023/09/18 03:28:21;;;;;;;28.20;20.63;;;16.70;99.90;;;;;;5096244;28;20036;-74
2023/09/18 03:30:47;;;;;;;26.98;19.98;;;;;;;;;;5113294;28;20058;-74
2023/09/18 03:33:13;;;;;;;26.45;20.42;;;;;;;;;;5096016;28;20047;-74
2023/09/18 03:35:47;;;;;;;28.75;19.85;;;17.90;99.90;;;;;;5112910;28;20047;-74
2023/09/18 03:38:14;;;;;;;27.05;19.73;;;;;;;;;;5113189;28;20437;-74
2023/09/18 03:40:39;;;;;;;27.02;21.15;;;16.10;99.90;;;;;;5112963;28;20044;-74
2023/09/18 03:43:05;;;;;;;26.15;19.98;;;;;;;;;;5114237;28;20085;-74
2023/09/18 03:45:31;;;;;;;26.33;20.17;;;;;;;;;;5112689;28;20080;-74
2023/09/18 03:47:57;;;;;;;29.73;20.48;;;;;;;;;;5112784;28;20035;-74
2023/09/18 03:50:24;;;;;;;26.75;20.75;;;;;;;;;;5113042;28;20624;-74
2023/09/18 03:52:49;;;;;;;27.55;20.77;;;16.20;99.90;;;;;;5113781;27;20039;-74
2023/09/18 03:55:15;;;;;;;26.33;21.38;;;17.50;99.90;;;;;;5116097;27;20176;-74
2023/09/18 03:57:42;;;;;;;25.13;19.63;;;17.10;99.90;;;;;;5116120;27;20047;-74
2023/09/18 04:00:08;;;;;;;33.65;21.50;;;17.50;99.90;;;;;;5115950;27;20042;-74
2023/09/18 04:02:34;;;;;;;28.67;21.67;;;;;;;;;;5116032;27;20149;-74
2023/09/18 04:05:00;;;;;;;29.58;21.92;;;16.60;99.90;;;;;;5115971;27;20391;-69
2023/09/18 04:07:27;;;;;;;28.60;20.67;;;;;;;;;;5098657;27;20498;-70
2023/09/18 04:09:53;;;;;;;28.50;21.27;;;;;;;;;;5115797;27;20035;-69
2023/09/18 04:12:19;;;;;;;26.55;20.40;;;;;;;;;;5098790;27;20039;-69
2023/09/18 04:14:45;;;;;;;30.80;21.95;;;17.40;99.90;;;;;;5116059;27;20458;-68
2023/09/18 04:17:11;;;;;;;28.83;22.42;;;;;;;;;;5114842;27;20070;-69
2023/09/18 04:19:37;;;;;;;24.48;19.77;;;;;;;;;;5116115;27;20385;-69
2023/09/18 04:22:03;;;;;;;29.25;21.70;;;18.10;99.90;;;;;;5115909;27;20491;-69
2023/09/18 04:24:29;;;;;;;28.10;20.63;;;16.60;99.90;;;;;;5115805;27;20049;-73
2023/09/18 04:26:55;;;;;;;33.97;21.88;;;;;;;;;;5115600;28;20043;-73
2023/09/18 04:29:20;;;;;;;27.73;21.08;;;16.00;99.90;;;;;;5115675;28;20070;-73
2023/09/18 04:31:48;;;;;;;32.17;22.30;;;;;;;;;;5081856;28;20066;-73
2023/09/18 04:34:14;;;;;;;29.08;22.70;;;;;;;;;;5115834;28;20121;-73
2023/09/18 04:36:40;;;;;;;29.13;21.45;;;15.90;99.90;;;;;;5115554;28;20130;-73
2023/09/18 04:39:06;;;;;;;34.42;22.45;;;18.20;99.90;;;;;;5099024;28;20126;-73
2023/09/18 04:41:35;;;;;;;30.52;21.48;;;16.20;99.90;;;;;;5115920;28;20485;-73
2023/09/18 04:44:02;;;;;;;34.90;23.10;;;;;;;;;;5115779;28;20074;-73
2023/09/18 04:46:29;;;;;;;32.05;22.77;;;;;;;;;;5115476;28;20039;-73
2023/09/18 04:48:55;;;;;;;32.55;21.33;;;;;;;;;;5098528;28;20551;-74
2023/09/18 04:51:21;;;;;;;29.13;21.65;;;17.10;99.90;;;;;;5115887;28;20039;-74
2023/09/18 04:53:47;;;;;;;30.45;22.13;;;17.90;99.90;;;;;;5098479;28;20444;-74
2023/09/18 04:56:13;;;;;;;32.22;21.83;;;16.00;99.90;;;;;;5115731;28;20491;-74
2023/09/18 04:58:39;;;;;;;26.73;19.50;;;17.40;99.90;;;;;;5098572;28;20127;-74
2023/09/18 05:01:05;;;;;;;28.30;20.50;;;18.20;99.90;;;;;;5115811;28;20050;-73
2023/09/18 05:03:31;;;;;;;29.33;20.15;;;;;;;;;;5115483;28;20046;-73
2023/09/18 05:05:57;;;;;;;29.10;20.25;;;;;;;;;;5115439;28;20461;-73
2023/09/18 05:08:23;;;;;;;27.30;19.85;;;17.60;99.90;;;;;;5115455;28;20039;-74
2023/09/18 05:10:50;;;;;;;29.00;20.00;;;;;;;;;;5115242;28;20399;-73
2023/09/18 05:13:16;;;;;;;29.65;21.40;;;;;;;;;;5115446;28;20077;-73
2023/09/18 05:15:42;;;;;;;26.85;20.02;;;18.20;99.90;;;;;;5115127;28;20041;-73
2023/09/18 05:18:08;;;;;;;28.02;20.20;;;16.20;99.90;;;;;;5115309;28;20114;-74
2023/09/18 05:20:34;;;;;;;29.98;21.48;;;18.00;99.90;;;;;;5133883;28;20114;-73
2023/09/18 05:23:01;;;;;;;27.35;19.48;;;;;;;;;;5115660;28;20039;-74
2023/09/18 05:25:31;;;;;;;25.23;19.08;;;17.10;99.90;;;;;;5115331;28;20082;-73
2023/09/18 05:27:59;;;;;;;29.90;19.88;;;18.20;99.90;;;;;;5116360;27;20075;-73
2023/09/18 05:30:35;;;;;;;33.88;19.95;;;17.20;99.90;;;;;;5119068;27;20482;-73
2023/09/18 05:33:05;;;;;;;29.73;20.88;;;17.20;99.90;;;;;;5119541;27;20039;-73
2023/09/18 05:35:36;;;;;;;27.70;19.23;;;18.30;99.90;;;;;;5119408;27;20043;-73
2023/09/18 05:38:03;;;;;;;26.70;19.45;;;18.20;99.90;;;;;;5102367;27;20043;-73
2023/09/18 05:40:29;;;;;;;27.88;19.05;;;18.30;99.90;;;;;;5119629;27;20035;-73
2023/09/18 05:42:56;;;;;;;27.83;19.13;;;17.30;99.90;;;;;;5138262;27;20110;-74
2023/09/18 05:45:22;;;;;;;25.02;18.25;;;16.80;99.90;;;;;;5126959;27;20040;-74
2023/09/18 05:47:49;;;;;;;27.17;17.50;;;17.70;99.90;;;;;;5123791;27;20405;-73
2023/09/18 05:50:16;;;;;;;32.35;19.35;;;;;;;;;;5141341;27;20037;-73
2023/09/18 05:52:42;;;;;;;35.03;18.85;;;18.00;99.90;;;;;;5140374;27;20035;-72
2023/09/18 05:55:09;;;;;;;33.45;19.50;;;16.90;99.90;;;;;;5138969;27;20502;-72
2023/09/18 05:57:35;;;;;;;28.67;19.48;;;17.50;99.90;;;;;;5142343;27;20027;-68
2023/09/18 06:00:01;;;;;;;34.33;21.85;;;17.50;99.90;;;;;;5111354;27;20445;-68
2023/09/18 06:02:27;;;;;;;34.75;19.98;;;;;;;;;;5120345;27;20043;-68
2023/09/18 06:04:59;;;;;;;26.75;18.80;;;17.60;99.90;;;;;;5119403;27;20102;-68
2023/09/18 06:07:29;;;;;;;29.02;19.98;;;17.60;99.90;;;;;;5101741;27;20035;-68
2023/09/18 06:09:57;;;;;;;31.88;20.50;;;18.40;99.90;;;;;;5101916;27;20047;-68
2023/09/18 06:12:23;;;;;;;31.77;20.05;;;;;;;;;;5118267;27;20066;-68
2023/09/18 06:14:49;;;;;;;33.95;20.40;;;18.60;99.90;;;;;;5118335;27;20048;-68
2023/09/18 06:17:16;;;;;;;35.60;20.90;;;18.40;99.90;;;;;;5136442;27;20050;-67
2023/09/18 06:19:42;;;;;;;39.42;20.33;;;17.20;99.90;;;;;;5100892;27;20034;-68
2023/09/18 06:22:09;;;;;;;36.17;20.30;;;16.90;99.90;;;;;;5118153;27;20662;-68
2023/09/18 06:24:35;;;;;;;31.27;19.80;;;18.40;99.90;;;;;;5118047;27;20043;-67
2023/09/18 06:27:01;;;;;;;39.75;22.02;;;17.60;99.90;;;;;;5100727;27;20043;-68
2023/09/18 06:29:27;;;;;;;35.45;21.00;;;18.40;99.90;;;;;;5118037;27;20107;-68
2023/09/18 06:31:52;;;;;;;31.25;20.48;;;17.40;99.90;;;;;;5100741;27;20507;-68
2023/09/18 06:34:18;;;;;;;31.65;19.63;;;18.80;99.90;;;;;;5117664;27;20118;-67
2023/09/18 06:36:44;;;;;;;32.40;19.05;;;;;;;;;;5117670;27;20039;-74
2023/09/18 06:39:10;;;;;;;30.80;20.02;;;16.60;99.90;;;;;;5099575;28;20092;-74
2023/09/18 06:41:36;;;;;;;27.52;16.35;;;16.80;99.90;;;;;;5117735;27;20035;-74
2023/09/18 06:44:02;;;;;;;25.73;15.20;;;18.00;99.90;;;;;;5117749;27;20389;-74
2023/09/18 06:46:28;;;;;;;22.13;13.27;;;18.90;99.90;;;;;;5117421;27;20047;-74
2023/09/18 06:48:56;;;;;;;21.83;12.30;;;17.00;99.90;;;;;;5100629;27;20398;-74
2023/09/18 06:51:22;;;;;;;18.10;11.32;;;;;;;;;;5117769;27;20035;-74
2023/09/18 06:53:47;;;;;;;17.55;11.38;;;18.90;99.90;;;;;;5117420;27;20051;-74
2023/09/18 06:56:13;;;;;;;16.52;10.50;;;17.40;99.90;;;;;;5117227;27;20099;-74
2023/09/18 06:58:39;;;;;;;18.33;9.05;;;17.90;99.90;;;;;;5117383;27;20126;-74
2023/09/18 07:01:09;;;;;;;11.90;8.63;;;18.50;99.90;;;;;;5117234;27;20180;-74
2023/09/18 07:03:36;;;;;;;12.38;7.47;;;16.60;99.90;;;;;;5117177;27;20047;-68
2023/09/18 07:06:04;;;;;;;12.15;7.55;;;;;;;;;;5117373;27;20127;-68
2023/09/18 07:08:32;;;;;;;12.93;6.85;;;;;;;;;;5135594;27;20042;-74
2023/09/18 07:10:58;;;;;;;10.48;6.43;;;18.60;99.90;;;;;;5117165;27;20047;-74
2023/09/18 07:13:24;;;;;;;10.07;6.10;;;19.00;99.90;;;;;;5117105;27;20031;-73
2023/09/18 07:15:50;;;;;;;10.43;5.70;;;;;;;;;;5116831;27;20043;-74
2023/09/18 07:18:16;;;;;;;8.40;6.03;;;17.60;99.90;;;;;;5100016;27;20035;-74
2023/09/18 07:20:43;;;;;;;8.48;5.65;;;17.50;99.90;;;;;;5116975;27;20043;-74
2023/09/18 07:23:10;;;;;;;9.30;5.75;;;;;;;;;;5099919;27;20062;-74
2023/09/18 07:25:38;;;;;;;9.07;5.25;;;18.80;99.90;;;;;;5116852;27;20035;-74
2023/09/18 07:28:08;;;;;;;15.90;5.53;;;16.60;99.90;;;;;;5116812;27;20047;-74
2023/09/18 07:30:36;;;;;;;10.82;5.90;;;17.40;99.90;;;;;;5099681;27;20055;-74
2023/09/18 07:33:02;;;;;;;13.45;5.95;;;18.30;99.90;;;;;;5116644;27;20038;-74
2023/09/18 07:35:27;;;;;;;9.48;5.22;;;18.20;99.90;;;;;;5116874;27;20122;-74
2023/09/18 07:37:53;;;;;;;11.35;5.50;;;16.70;99.90;;;;;;5116484;27;20047;-74
2023/09/18 07:40:20;;;;;;;12.77;5.82;;;;;;;;;;5116677;27;20127;-74
2023/09/18 07:42:46;;;;;;;11.30;5.45;;;18.10;99.90;;;;;;5099683;27;20389;-74
2023/09/18 07:45:13;;;;;;;14.00;6.30;;;;;;;;;;5116687;27;20047;-74
2023/09/18 07:47:39;;;;;;;10.95;6.10;;;;;;;;;;5116406;27;20039;-74
2023/09/18 07:50:06;;;;;;;13.10;5.95;;;17.70;99.90;;;;;;5116512;27;20107;-74
2023/09/18 07:52:32;;;;;;;11.27;5.63;;;18.90;99.90;;;;;;5116458;27;20047;-74
2023/09/18 07:54:58;;;;;;;11.10;6.25;;;19.00;99.90;;;;;;5116117;27;20164;-73
2023/09/18 07:57:25;;;;;;;12.40;6.25;;;18.60;99.90;;;;;;5116163;27;20050;-74
2023/09/18 07:59:51;;;;;;;12.32;7.18;;;18.00;99.90;;;;;;5116029;27;20568;-67
2023/09/18 08:02:17;;;;;;;12.65;6.68;;;;;;;;;;5115943;27;20165;-67
2023/09/18 08:04:43;;;;;;;9.88;6.75;;;18.20;99.90;;;;;;5116062;28;20051;-67
2023/09/18 08:07:10;;;;;;;14.40;6.20;;;;;;;;;;5115812;27;20043;-67
2023/09/18 08:09:36;;;;;;;11.30;6.82;;;19.00;99.90;;;;;;5116349;27;20391;-67
2023/09/18 08:12:11;;;;;;;12.85;6.47;;;19.00;99.90;;;;;;5116334;27;20034;-67
2023/09/18 08:14:37;;;;;;;9.77;6.38;;;18.50;99.90;;;;;;5134435;27;20043;-67
2023/09/18 08:17:04;;;;;;;8.95;6.10;;;18.40;99.90;;;;;;5115904;27;20078;-68
2023/09/18 08:19:32;;;;;;;12.90;6.60;;;16.80;99.90;;;;;;5116169;27;20047;-67
2023/09/18 08:21:59;;;;;;;12.70;6.45;;;17.80;99.90;;;;;;5099107;27;20055;-68
2023/09/18 08:24:25;;;;;;;10.05;6.22;;;;;;;;;;5099290;27;20042;-68
2023/09/18 08:26:51;;;;;;;12.80;6.68;;;;;;;;;;5099240;28;20313;-67
2023/09/18 08:29:18;;;;;;;11.48;6.32;;;17.70;99.90;;;;;;5116021;28;20046;-67
2023/09/18 08:31:43;;;;;;;14.65;6.35;;;17.10;99.90;;;;;;5115986;28;20047;-74
2023/09/18 08:34:09;;;;;;;10.25;6.35;;;;;;;;;;5098944;28;20123;-74
2023/09/18 08:36:35;;;;;;;10.57;6.30;;;18.10;99.90;;;;;;5116320;28;20039;-75
2023/09/18 08:39:05;;;;;;;12.20;6.25;;;18.10;99.90;;;;;;5117351;28;20372;-74
2023/09/18 08:41:32;;;;;;;14.40;6.30;;;18.50;99.90;;;;;;5135811;28;20047;-74
2023/09/18 08:44:03;;;;;;;12.75;5.88;;;17.60;99.90;;;;;;5118773;28;20043;-74
2023/09/18 08:46:30;;;;;;;10.38;5.63;;;19.10;99.90;;;;;;5119003;28;20047;-74
2023/09/18 08:48:59;;;;;;;13.88;6.00;;;17.50;99.90;;;;;;5137692;28;20382;-74
2023/09/18 08:51:26;;;;;;;10.77;6.00;;;19.30;99.90;;;;;;5101275;28;20035;-74
2023/09/18 08:53:52;;;;;;;11.85;5.85;;;19.40;99.90;;;;;;5116231;28;20384;-74
2023/09/18 08:56:20;;;;;;;10.18;5.93;;;17.30;99.90;;;;;;5099787;28;20078;-74
2023/09/18 08:58:47;;;;;;;12.88;5.90;;;17.50;99.90;;;;;;5099795;28;20039;-74
2023/09/18 09:01:13;;;;;;;12.15;6.63;;;;;;;;;;5134524;28;20042;-74
2023/09/18 09:03:40;;;;;;;11.57;6.80;;;18.10;99.90;;;;;;5119039;27;20092;-74
2023/09/18 09:06:07;;;;;;;11.77;6.97;;;17.70;99.90;;;;;;5103570;27;20055;-74
2023/09/18 09:08:34;;;;;;;14.05;7.93;;;19.60;99.90;;;;;;5121720;27;20058;-75
2023/09/18 09:11:00;;;;;;;16.98;8.00;;;19.20;99.90;;;;;;5142145;27;20039;-75
2023/09/18 09:13:26;;;;;;;14.50;9.10;;;18.60;99.90;;;;;;5122676;27;20050;-74
2023/09/18 09:15:57;;;;;;;14.07;9.55;;;19.50;99.90;;;;;;5135930;27;20053;-74
2023/09/18 09:18:25;;;;;;;15.10;9.63;;;19.60;99.90;;;;;;5141495;27;20062;-74
2023/09/18 09:20:59;;;;;;;15.80;10.20;;;17.60;99.90;;;;;;5124522;27;20039;-74
2023/09/18 09:23:43;;;;;;;16.52;10.00;;;19.10;99.90;;;;;;5124578;27;20114;-74
2023/09/18 09:26:14;;;;;;;19.15;11.15;;;19.70;99.90;;;;;;5143736;27;20034;-75
2023/09/18 09:28:42;;;;;;;14.18;10.48;;;19.60;99.90;;;;;;5142425;27;20037;-74
2023/09/18 09:31:08;;;;;;;14.43;10.50;;;19.50;99.90;;;;;;5143093;27;20058;-75
2023/09/18 09:33:34;;;;;;;15.43;10.57;;;19.80;99.90;;;;;;5135107;27;20034;-75
2023/09/18 09:36:04;;;;;;;17.42;12.18;;;19.90;99.90;;;;;;5109845;27;20039;-74
2023/09/18 09:38:32;;;;;;;23.42;11.98;;;18.30;99.90;;;;;;5125594;27;20070;-74
2023/09/18 09:41:01;;;;;;;20.27;11.52;;;19.30;99.90;;;;;;5123981;27;20451;-75
2023/09/18 09:43:30;;;;;;;19.90;12.80;;;18.90;99.90;;;;;;5120603;27;20108;-75
2023/09/18 09:45:58;;;;;;;19.80;12.93;;;20.30;99.90;;;;;;5120358;27;20039;-74
2023/09/18 09:48:25;;;;;;;18.65;11.38;;;20.30;99.90;;;;;;5120048;27;20043;-75
2023/09/18 09:50:51;;;;;;;19.30;13.85;;;19.40;99.90;;;;;;5119162;27;20040;-75
2023/09/18 09:53:18;;;;;;;22.08;14.48;;;19.50;99.90;;;;;;5118766;27;20047;-75
2023/09/18 09:55:44;;;;;;;24.90;14.30;;;20.30;99.90;;;;;;5118756;27;20055;-75
2023/09/18 09:58:11;;;;;;;25.50;16.02;;;20.10;99.90;;;;;;5118433;27;20155;-75
2023/09/18 10:00:51;;;;;;;21.35;14.70;;;20.40;99.90;;;;;;5118290;27;20039;-75
2023/09/18 10:03:19;;;;;;;26.08;17.50;;;19.00;99.90;;;;;;5118339;27;20047;-75
2023/09/18 10:05:47;;;;;;;24.42;17.50;;;20.40;99.90;;;;;;5118752;27;20502;-75
2023/09/18 10:08:32;;;;;;;26.20;17.48;;;19.50;99.90;;;;;;5118284;27;20067;-75
2023/09/18 10:11:10;;;;;;;29.35;18.95;;;20.30;99.90;;;;;;5118127;27;20039;-75
2023/09/18 10:13:57;;;;;;;23.55;17.67;;;20.50;99.90;;;;;;5118349;27;20050;-75
2023/09/18 10:16:27;;;;;;;25.02;18.38;;;20.60;99.90;;;;;;5118578;27;20074;-76
2023/09/18 10:19:09;;;;;;;26.25;18.52;;;20.30;99.90;;;;;;5118112;27;20187;-76
2023/09/18 10:21:49;;;;;;;23.20;19.77;;;20.30;99.90;;;;;;5118146;27;20478;-69
2023/09/18 10:24:25;;;;;;;23.38;16.67;;;20.10;99.90;;;;;;5118055;27;20039;-75
2023/09/18 10:27:00;;;;;;;25.52;18.75;;;20.40;99.90;;;;;;5100828;27;20072;-76
2023/09/18 10:29:28;;;;;;;22.88;18.25;;;20.30;99.90;;;;;;5101015;27;20042;-75
2023/09/18 10:31:54;;;;;;;22.70;16.55;;;20.00;99.90;;;;;;5117678;27;20035;-76
2023/09/18 10:34:22;;;;;;;25.92;17.10;;;21.00;99.90;;;;;;5100792;27;20053;-76
2023/09/18 10:36:49;;;;;;;21.58;16.38;;;20.70;99.90;;;;;;5117665;27;20043;-76
2023/09/18 10:39:19;;;;;;;19.90;15.45;;;19.30;99.90;;;;;;5100957;27;20372;-76
2023/09/18 10:41:50;;;;;;;20.17;14.60;;;21.20;99.90;;;;;;5084635;27;20047;-76
2023/09/18 10:44:19;;;;;;;20.67;16.15;;;20.20;99.90;;;;;;5117437;27;20498;-76
2023/09/18 10:46:50;;;;;;;20.73;14.48;;;20.60;99.90;;;;;;5100746;27;20104;-76
2023/09/18 10:49:17;;;;;;;17.58;15.02;;;21.10;99.90;;;;;;5117621;27;20031;-76
2023/09/18 10:51:43;;;;;;;21.83;15.00;;;20.20;99.90;;;;;;5117484;27;20046;-76
2023/09/18 10:54:10;;;;;;;16.98;14.10;;;20.40;99.90;;;;;;5117304;27;20047;-76
2023/09/18 10:56:36;;;;;;;20.75;13.45;;;21.20;99.90;;;;;;5117462;27;20550;-76
2023/09/18 10:59:07;;;;;;;15.52;12.05;;;20.50;99.90;;;;;;5100459;27;20082;-76
2023/09/18 11:01:36;;;;;;;17.23;11.52;;;21.50;99.90;;;;;;5117568;27;20042;-76
2023/09/18 11:04:07;;;;;;;17.23;9.85;;;20.70;99.90;;;;;;5117290;27;20112;-76
2023/09/18 11:06:53;;;;;;;15.00;9.90;;;20.20;99.90;;;;;;5117282;27;20447;-76
2023/09/18 11:09:21;;;;;;;13.45;9.75;;;21.50;99.90;;;;;;5099612;27;20043;-76
2023/09/18 11:11:56;;;;;;;12.52;8.70;;;21.70;99.90;;;;;;5117095;27;20121;-76
2023/09/18 11:14:22;;;;;;;13.55;9.40;;;21.50;99.90;;;;;;5117379;27;20101;-70
2023/09/18 11:16:49;;;;;;;12.52;8.30;;;21.20;99.90;;;;;;5116815;27;20514;-70
2023/09/18 11:19:19;;;;;;;13.90;8.40;;;20.30;99.90;;;;;;5117088;27;20043;-70
2023/09/18 11:21:46;;;;;;;14.35;8.43;;;19.90;99.90;;;;;;5116781;27;20398;-70
2023/09/18 11:24:17;;;;;;;14.05;7.72;;;21.50;99.90;;;;;;5099562;27;20043;-70
2023/09/18 11:26:45;;;;;;;10.30;6.65;;;20.60;99.90;;;;;;5116326;27;20078;-70
2023/09/18 11:29:14;;;;;;;15.10;6.30;;;20.50;99.90;;;;;;5100038;27;20364;-70
2023/09/18 11:31:47;;;;;;;12.10;5.90;;;21.40;99.90;;;;;;5116707;27;20039;-70
2023/09/18 11:34:14;;;;;;;10.23;5.47;;;20.90;99.90;;;;;;5116654;27;20095;-70
2023/09/18 11:36:40;;;;;;;7.90;3.97;;;20.70;99.90;;;;;;5116424;27;20054;-70
2023/09/18 11:39:06;;;;;;;9.15;4.65;;;21.40;99.90;;;;;;5116806;27;20122;-70
2023/09/18 11:41:39;;;;;;;14.07;4.90;;;21.40;99.90;;;;;;5100069;27;20469;-70
2023/09/18 11:44:14;;;;;;;8.90;4.50;;;21.40;99.90;;;;;;5116833;27;20171;-71
2023/09/18 11:46:45;;;;;;;12.77;4.95;;;21.20;99.90;;;;;;5116333;27;20091;-70
2023/09/18 11:49:16;;;;;;;7.80;4.40;;;20.10;99.90;;;;;;5116461;27;20094;-70
2023/09/18 11:51:42;;;;;;;19.03;5.20;;;21.50;99.90;;;;;;5116537;27;20031;-70
2023/09/18 11:54:09;;;;;;;10.77;5.18;;;20.60;99.90;;;;;;5115851;27;20285;-69
2023/09/18 11:56:35;;;;;;;10.45;5.45;;;21.00;99.90;;;;;;5099116;27;20080;-69
2023/09/18 11:59:04;;;;;;;13.68;6.15;;;21.30;99.90;;;;;;5116050;27;20079;-69
2023/09/18 12:01:31;;;;;;;11.93;6.10;;;20.00;99.90;;;;;;5115802;27;20122;-69
2023/09/18 12:04:00;;;;;;;11.20;6.20;;;20.50;99.90;;;;;;5099310;27;20122;-69
2023/09/18 12:06:26;;;;;;;12.23;8.07;;;;;;;;;;5115946;27;20088;-75
2023/09/18 12:08:53;;;;;;;11.30;7.75;;;21.00;99.90;;;;;;5115992;27;20526;-69
2023/09/18 12:11:20;;;;;;;15.88;7.97;;;20.00;99.90;;;;;;5115978;27;20123;-69
2023/09/18 12:13:53;;;;;;;12.20;7.60;;;21.10;99.90;;;;;;5098998;27;20039;-70
2023/09/18 12:16:19;;;;;;;10.55;8.00;;;22.10;99.90;;;;;;5115786;27;20092;-69
2023/09/18 12:18:49;;;;;;;12.77;6.93;;;20.70;99.90;;;;;;5115860;27;20050;-76
2023/09/18 12:21:17;;;;;;;13.35;7.10;;;21.20;99.90;;;;;;5116036;27;20049;-77
2023/09/18 12:23:44;;;;;;;12.57;6.45;;;21.60;99.90;;;;;;5099147;27;20153;-76
2023/09/18 12:26:14;;;;;;;15.38;7.30;;;21.90;99.90;;;;;;5116236;27;20073;-76
2023/09/18 12:28:41;;;;;;;9.38;6.95;;;22.10;99.90;;;;;;5098900;28;20055;-76
2023/09/18 12:31:11;;;;;;;11.75;7.00;;;21.40;99.90;;;;;;5099076;28;20043;-76
2023/09/18 12:33:38;;;;;;;14.38;7.50;;;22.20;99.90;;;;;;5115953;28;20038;-76
2023/09/18 12:36:05;;;;;;;12.35;7.00;;;22.10;99.90;;;;;;5115733;28;20064;-77
2023/09/18 12:38:32;;;;;;;16.38;7.00;;;20.30;99.90;;;;;;5101385;27;20035;-76
2023/09/18 12:41:05;;;;;;;10.40;7.03;;;20.70;99.90;;;;;;5103808;27;20039;-76
2023/09/18 12:43:41;;;;;;;10.27;6.75;;;21.20;99.90;;;;;;5120923;27;20046;-76
2023/09/18 12:46:08;;;;;;;10.90;7.00;;;21.70;99.90;;;;;;5120725;27;20038;-76
2023/09/18 12:48:42;;;;;;;11.50;7.20;;;21.90;99.90;;;;;;5121254;27;20039;-76
2023/09/18 12:51:08;;;;;;;8.50;7.35;;;21.00;99.90;;;;;;5119406;27;20393;-76
2023/09/18 12:53:34;;;;;;;10.27;7.00;;;21.40;99.90;;;;;;5144990;27;20039;-74
2023/09/18 12:56:14;;;;;;;10.93;7.88;;;21.70;99.90;;;;;;5144911;27;20063;-74